Jackson, MS (39201)

5:30 PM CDT on July 23, 2016 (GMT -0500)
Belhaven | | Change Station
Active Advisory: Heat Advisory Active Notice: Public Information Statement

Elev 318 ft 32.32 °N, 90.16 °W | Updated 6 seconds ago

Light Rain
Light Rain Mist
75.0 °F
Feels Like 73 °F
N
0.0
Wind Variable Wind from West
Gusts 0.0 mph

Today
High -- | Low -- °F
--% Chance of Precip.
Yesterday
High -- | Low -- °F
Precip. -- in
Pressure 30.00 in
Visibility 6.0 miles
Clouds Scattered Clouds 600 ft
Mostly Cloudy 2500 ft
Overcast 7000 ft
Heat Index 73 °F
Dew Point 74 °F
Humidity 98%
Rainfall 2.87 in
Snow Depth Not available.
6:09 AM 8:04 PM
Waning Gibbous, 82% visible
SPECI KHKS 232219Z VRB05KT 6SM VCTS -RA BR SCT006 BKN025 OVC070 24/23 A3000 RMK AO2 LTG DSNT N AND NE RAB2158 P0003 T02440233
Pressure 30.00 in
Visibility 6.0 miles
Clouds Scattered Clouds 600 ft
Mostly Cloudy 2500 ft
Overcast 7000 ft
Heat Index 73 °F
Dew Point 74 °F
Humidity 98%
Rainfall 2.87 in
Snow Depth Not available.
6:09 AM 8:04 PM
Waning Gibbous, 82% visible
SPECI KHKS 232219Z VRB05KT 6SM VCTS -RA BR SCT006 BKN025 OVC070 24/23 A3000 RMK AO2 LTG DSNT N AND NE RAB2158 P0003 T02440233

10-Day Weather Forecast

Almanac

Astronomy

Jul. 23, 2016 Rise Set
Actual Time
Civil Twilight
Nautical Twilight
Astronomical Twilight
Moon
Length of Visible Light
Length of Day
Tomorrow will be .
, % of the Moon is Illuminated

Today's Extremes

State Highs State Lows

Community

WunderPhotos

Upload Photos

1,926,948 photos uploaded!

WunderBlog® & News

Nearby

Air Quality

  Air Quality AQ Index Pollutant
Not available.

Snow Depth

Station Depth Elevation

Earthquake Activity

City Distance Mag. Time & Date
Minimum magnitude displayed is 2.5.

Coastal Water Temperatures

Place Temperature

Stations

Nearby Weather Stations

Station Location Temp. Windchill Dew Point Humidity Wind Precip. Elev Updated Type
                   

Watches & Warnings

Heat Advisory
Issued: 3:03 PM CDT Jul. 23, 2016 – National Weather Service

... Heat advisory remains in effect until 7 PM CDT this evening...

* temperature... highs in the middle to upper 90s combined with
high humidity levels will result in heat index readings from
106 to 110.

* Impacts... heat stress will reach dangerous levels and could
lead to heat exhaustion or heat stroke for those working
outdoors.

Precautionary/preparedness actions...

Take extra precautions... if you work or spend time outside. When
possible... reschedule strenuous activities to early morning or
evening. Know the signs and symptoms of heat exhaustion and heat
stroke. Wear light weight and loose fitting clothing when
possible and drink plenty of water.